Time;durP1;ratioP1;P1;durP2;ratioP2;P2;SDS_P1;SDS_P2;PMS_P1;PMS_P2;Temp;Humidity;BMP_temperature;BMP_pressure;BME280_temperature;BME280_humidity;BME280_pressure;Samples;Min_cycle;Max_cycle;Signal;HPM_P1;HPM_P2
2021/01/07 10:34:46;;;;;;;16.17;10.00;;;2.00;99.90;;;;;;6204281;23;20048;-94
2021/01/07 10:37:16;;;;;;;16.80;9.63;;;2.10;99.90;;;;;;6207342;23;20009;-93
2021/01/07 10:39:42;;;;;;;19.13;10.80;;;2.00;99.90;;;;;;6182476;23;19985;-96
2021/01/07 10:42:13;;;;;;;17.47;10.00;;;2.00;99.90;;;;;;6186499;23;20325;-95
2021/01/07 10:44:40;;;;;;;19.73;10.40;;;2.10;99.90;;;;;;6211870;23;20004;-96
2021/01/07 10:47:08;;;;;;;16.13;10.07;;;2.10;99.90;;;;;;6210285;23;19993;-94
2021/01/07 10:49:36;;;;;;;17.30;9.73;;;2.10;99.90;;;;;;6211288;23;19989;-94
2021/01/07 10:52:08;;;;;;;19.20;10.27;;;2.20;99.90;;;;;;6209717;23;20005;-93
2021/01/07 10:54:43;;;;;;;15.90;9.20;;;2.20;99.90;;;;;;6211211;23;19993;-94
2021/01/07 10:57:39;;;;;;;18.30;10.50;;;2.20;99.90;;;;;;6210966;23;20038;-94
2021/01/07 11:00:29;;;;;;;17.63;10.60;;;2.30;99.90;;;;;;6211854;23;20047;-94
2021/01/07 11:03:16;;;;;;;20.17;11.07;;;2.40;99.90;;;;;;6209788;23;20051;-94
2021/01/07 11:05:45;;;;;;;17.43;10.77;;;2.50;99.90;;;;;;6211138;23;19997;-93
2021/01/07 11:08:52;;;;;;;17.70;10.33;;;2.50;99.90;;;;;;6211269;23;20001;-95
2021/01/07 11:11:27;;;;;;;18.77;10.67;;;2.50;99.90;;;;;;6210257;23;19996;-93
2021/01/07 11:14:00;;;;;;;19.07;10.73;;;2.60;99.90;;;;;;6211330;23;20000;-92
2021/01/07 11:19:31;;;;;;;18.00;10.63;;;2.70;99.90;;;;;;6201235;23;20029;-92
2021/01/07 11:32:18;;;;;;;18.33;10.90;;;3.10;99.90;;;;;;6174560;23;20021;-90
2021/01/07 11:34:47;;;;;;;15.93;9.47;;;3.10;99.90;;;;;;6194932;23;19988;-94
2021/01/07 11:37:13;;;;;;;18.57;9.73;;;3.10;99.90;;;;;;6198003;23;19992;-93
2021/01/07 11:39:57;;;;;;;18.27;9.83;;;3.10;99.90;;;;;;6184923;23;20025;-92
2021/01/07 11:42:35;;;;;;;16.17;9.23;;;3.10;99.90;;;;;;6192765;23;20008;-93
2021/01/07 11:45:20;;;;;;;16.30;9.23;;;3.10;99.90;;;;;;6182601;23;20000;-92
2021/01/07 13:49:32;;;;;;;16.20;9.17;;;2.00;99.90;;;;;;6182074;23;20001;-95
2021/01/07 13:52:02;;;;;;;15.97;8.97;;;2.00;99.90;;;;;;6188019;23;19986;-94
2021/01/07 13:54:31;;;;;;;16.73;9.40;;;2.00;99.90;;;;;;6215840;23;19985;-95
2021/01/07 13:56:58;;;;;;;16.50;9.03;;;2.00;99.90;;;;;;6212494;23;19992;-95
2021/01/07 13:59:28;;;;;;;17.43;9.57;;;2.00;99.90;;;;;;6215980;23;19991;-94
2021/01/07 14:01:54;;;;;;;18.27;9.80;;;2.00;99.90;;;;;;6216514;23;19984;-96
2021/01/07 14:04:26;;;;;;;17.33;9.70;;;2.00;99.90;;;;;;6216687;23;19985;-94
2021/01/07 14:06:55;;;;;;;16.67;10.07;;;2.00;99.90;;;;;;6215863;23;20049;-96
2021/01/07 14:09:31;;;;;;;17.67;9.67;;;1.90;99.90;;;;;;6241192;23;19989;-94
2021/01/07 14:12:01;;;;;;;16.03;8.83;;;1.90;99.90;;;;;;6216370;23;20040;-95
2021/01/07 14:14:31;;;;;;;16.77;9.60;;;2.00;99.90;;;;;;6215948;23;19988;-95
2021/01/07 14:16:57;;;;;;;16.10;10.03;;;1.90;99.90;;;;;;6216258;23;20036;-94
2021/01/07 14:20:01;;;;;;;16.83;9.33;;;2.00;99.90;;;;;;6215377;23;20015;-95
2021/01/07 14:22:43;;;;;;;15.13;9.07;;;2.00;99.90;;;;;;6212496;23;20064;-96
2021/01/07 14:25:22;;;;;;;18.88;10.40;;;2.00;99.90;;;;;;6214006;23;19985;-96
2021/01/07 14:31:10;;;;;;;16.07;9.03;;;1.90;99.90;;;;;;6244589;23;19976;-95
2021/01/07 14:33:43;;;;;;;17.43;10.17;;;1.90;99.90;;;;;;6215213;23;20000;-95
2021/01/07 14:36:14;;;;;;;17.80;9.73;;;1.90;99.90;;;;;;6215140;23;20023;-96
2021/01/07 14:38:40;;;;;;;16.43;9.63;;;1.80;99.90;;;;;;6215572;23;20011;-96
2021/01/07 14:41:26;;;;;;;16.10;9.90;;;1.80;99.90;;;;;;6215425;23;19992;-96
2021/01/07 14:44:21;;;;;;;17.17;10.77;;;1.80;99.90;;;;;;6214955;23;19984;-96
2021/01/07 14:47:18;;;;;;;18.83;10.50;;;1.60;99.90;;;;;;6200116;22;19992;-95
2021/01/07 14:49:49;;;;;;;18.30;10.17;;;1.70;99.90;;;;;;6207814;22;20001;-94
2021/01/07 14:52:17;;;;;;;17.60;10.30;;;1.60;99.90;;;;;;6210668;22;20246;-91
2021/01/07 15:21:15;;;;;;;24.63;9.47;;;1.40;99.90;;;;;;6192316;23;20037;-93
2021/01/07 15:24:15;;;;;;;17.63;9.47;;;1.30;99.90;;;;;;6192563;23;19985;-95
2021/01/07 15:30:13;;;;;;;17.87;9.87;;;1.20;99.90;;;;;;6234073;23;19992;-96
2021/01/07 15:33:18;;;;;;;15.97;9.77;;;1.20;99.90;;;;;;6264618;23;19989;-95
2021/01/07 15:35:52;;;;;;;17.77;9.87;;;1.20;99.90;;;;;;6196792;23;20013;-94
2021/01/07 15:39:18;;;;;;;16.00;9.90;;;1.20;99.90;;;;;;6181932;23;20001;-96
2021/01/07 15:42:17;;;;;;;15.50;9.67;;;1.20;99.90;;;;;;6093362;23;20109;-95
2021/01/07 15:45:27;;;;;;;16.37;9.57;;;1.20;99.90;;;;;;6095149;23;20001;-96
2021/01/07 15:48:25;;;;;;;15.13;9.00;;;1.10;99.90;;;;;;6169951;23;20000;-95
2021/01/07 15:51:06;;;;;;;19.37;10.23;;;1.10;99.90;;;;;;6178413;23;20052;-94
2021/01/07 17:11:18;;;;;;;18.83;11.07;;;0.90;99.90;;;;;;6148492;23;20201;-92
2021/01/07 17:13:46;;;;;;;21.67;11.70;;;0.90;99.90;;;;;;6170332;23;20163;-94
2021/01/07 17:16:12;;;;;;;19.70;11.40;;;1.00;99.90;;;;;;6177035;23;20010;-95
2021/01/07 17:18:38;;;;;;;19.53;11.33;;;0.90;99.90;;;;;;6176394;23;19998;-94
2021/01/07 17:21:04;;;;;;;19.73;10.73;;;1.00;99.90;;;;;;6174638;23;20005;-94
2021/01/07 17:23:30;;;;;;;20.23;11.93;;;0.90;99.90;;;;;;6175023;23;20001;-92
2021/01/07 17:25:55;;;;;;;19.93;11.43;;;0.90;99.90;;;;;;6175835;23;20008;-93
2021/01/07 18:04:40;;;;;;;21.37;12.83;;;1.10;99.90;;;;;;6180093;23;20001;-95
2021/01/07 18:07:12;;;;;;;22.47;12.50;;;1.10;99.90;;;;;;6180580;23;20005;-95
2021/01/07 18:09:40;;;;;;;;;;;1.10;99.90;;;;;;6203019;23;19993;-94
2021/01/07 18:12:06;;;;;;;21.77;12.60;;;1.10;99.90;;;;;;6172346;22;19908;-94
2021/01/07 18:14:32;;;;;;;24.73;13.77;;;1.10;99.90;;;;;;6199069;22;20500;-93
2021/01/07 18:16:59;;;;;;;23.50;13.13;;;1.10;99.90;;;;;;6205288;22;20020;-94
2021/01/07 18:19:25;;;;;;;22.77;13.33;;;1.10;99.90;;;;;;6206067;22;19997;-92
2021/01/07 18:21:52;;;;;;;20.43;12.27;;;1.10;99.90;;;;;;6206721;22;21154;-93
2021/01/07 18:24:20;;;;;;;22.70;13.13;;;1.10;99.90;;;;;;6208273;22;20001;-91
2021/01/07 18:26:47;;;;;;;24.37;13.93;;;1.10;99.90;;;;;;6208137;22;20001;-92
2021/01/07 18:29:13;;;;;;;23.03;13.87;;;1.10;99.90;;;;;;6207686;22;20009;-93
2021/01/07 18:31:39;;;;;;;24.33;14.27;;;1.10;99.90;;;;;;6205336;22;20009;-94
2021/01/07 18:34:11;;;;;;;22.10;13.57;;;1.20;99.90;;;;;;6205508;22;20008;-93
2021/01/07 18:36:38;;;;;;;22.27;13.33;;;1.10;99.90;;;;;;6203274;22;20005;-94
2021/01/07 18:50:01;;;;;;;20.70;12.03;;;1.10;99.90;;;;;;6178225;22;952412;-92
2021/01/07 18:55:13;;;;;;;23.77;12.87;;;1.10;99.90;;;;;;6156497;23;20037;-93
2021/01/07 18:57:51;;;;;;;;;;;;;;;;;;;;;
2021/01/07 19:00:21;;;;;;;24.13;13.20;;;1.10;99.90;;;;;;6147748;23;20005;-92
2021/01/07 19:02:47;;;;;;;25.57;14.10;;;1.10;99.90;;;;;;6124619;23;20124;-93
2021/01/07 19:05:14;;;;;;;23.33;13.33;;;1.10;99.90;;;;;;6127175;23;19997;-93
2021/01/07 19:07:40;;;;;;;22.53;13.07;;;1.10;99.90;;;;;;6103182;23;19993;-92
2021/01/07 19:12:45;;;;;;;21.67;13.27;;;1.20;99.90;;;;;;6153195;23;20009;-92
2021/01/07 19:15:11;;;;;;;24.40;12.83;;;1.10;99.90;;;;;;6126211;23;20407;-92
2021/01/07 19:17:41;;;;;;;24.53;13.13;;;1.10;99.90;;;;;;6123242;23;20045;-91
2021/01/07 19:20:09;;;;;;;25.77;13.83;;;1.00;99.90;;;;;;6124223;23;20013;-91
2021/01/07 19:22:36;;;;;;;23.50;12.97;;;1.00;99.90;;;;;;6126697;23;19998;-91
2021/01/07 19:25:04;;;;;;;27.13;14.07;;;1.00;99.90;;;;;;6126117;23;19998;-93
2021/01/07 19:27:31;;;;;;;23.60;13.03;;;1.00;99.90;;;;;;6124694;23;20020;-92
2021/01/07 19:29:59;;;;;;;24.50;13.80;;;1.00;99.90;;;;;;6150540;23;19998;-92
2021/01/07 19:32:25;;;;;;;21.43;13.27;;;1.00;99.90;;;;;;6126521;23;20014;-92
2021/01/07 19:34:51;;;;;;;24.10;13.37;;;0.90;99.90;;;;;;6121911;23;20012;-90
2021/01/07 19:37:27;;;;;;;24.43;13.03;;;0.90;99.90;;;;;;6127245;23;20010;-96
2021/01/07 19:39:53;;;;;;;23.10;12.80;;;0.80;99.90;;;;;;6128622;23;20008;-95
2021/01/07 19:42:19;;;;;;;24.97;13.93;;;0.80;99.90;;;;;;6127973;23;20071;-94
2021/01/07 19:44:45;;;;;;;23.50;13.73;;;0.80;99.90;;;;;;6125245;23;20005;-92
2021/01/07 19:47:11;;;;;;;23.57;12.77;;;0.80;99.90;;;;;;6126110;23;19994;-92
2021/01/07 19:49:37;;;;;;;23.83;13.67;;;0.70;99.90;;;;;;6116722;23;20012;-92
2021/01/07 19:52:03;;;;;;;23.80;13.60;;;0.70;99.90;;;;;;6115381;23;20018;-90
2021/01/07 19:54:29;;;;;;;25.07;13.43;;;0.70;99.90;;;;;;6115906;23;19990;-92
2021/01/07 19:57:00;;;;;;;22.80;13.70;;;0.70;99.90;;;;;;6114811;23;20006;-92
2021/01/07 19:59:25;;;;;;;21.03;12.07;;;0.70;99.90;;;;;;6106706;23;20010;-90
2021/01/07 20:01:51;;;;;;;22.83;13.20;;;0.70;99.90;;;;;;6142149;23;20005;-92
2021/01/07 20:04:22;;;;;;;22.20;13.30;;;0.70;99.90;;;;;;6113253;23;19994;-92
2021/01/07 20:06:48;;;;;;;21.73;12.33;;;0.70;99.90;;;;;;6134139;23;19994;-91
2021/01/07 20:09:22;;;;;;;21.23;12.37;;;0.70;99.90;;;;;;6106593;23;20032;-91
2021/01/07 20:12:13;;;;;;;23.57;12.80;;;0.70;99.90;;;;;;6122094;23;20018;-95
2021/01/07 20:14:42;;;;;;;21.63;12.53;;;0.70;99.90;;;;;;6135774;23;20041;-93
2021/01/07 20:17:08;;;;;;;21.50;12.43;;;0.70;99.90;;;;;;6144470;23;20029;-92
2021/01/07 20:19:33;;;;;;;22.33;11.37;;;0.70;99.90;;;;;;6144908;23;20005;-93
2021/01/07 20:21:59;;;;;;;22.73;11.83;;;0.60;99.90;;;;;;6145546;23;19998;-93
2021/01/07 20:24:25;;;;;;;20.83;11.67;;;0.60;99.90;;;;;;6146528;23;20001;-94
2021/01/07 20:26:51;;;;;;;18.40;10.93;;;0.60;99.90;;;;;;6144280;23;20005;-92
2021/01/07 20:29:17;;;;;;;20.07;11.93;;;0.60;99.90;;;;;;6146789;23;20030;-93
2021/01/07 20:31:44;;;;;;;20.77;11.60;;;0.50;99.90;;;;;;6147278;23;20024;-92
2021/01/07 20:34:16;;;;;;;19.83;11.60;;;0.50;99.90;;;;;;6146578;23;20002;-92
2021/01/07 20:36:43;;;;;;;20.13;11.32;;;0.40;99.90;;;;;;6146520;23;20006;-92
2021/01/07 20:39:10;;;;;;;22.73;12.47;;;0.40;99.90;;;;;;6146072;23;20002;-91
2021/01/07 20:41:44;;;;;;;21.63;11.63;;;0.40;99.90;;;;;;6145411;23;20066;-92
2021/01/07 20:44:10;;;;;;;17.87;9.50;;;0.40;99.90;;;;;;6145188;23;19994;-90
2021/01/07 20:46:37;;;;;;;20.40;10.97;;;0.40;99.90;;;;;;6144075;23;20005;-94
2021/01/07 20:49:05;;;;;;;19.53;10.73;;;0.40;99.90;;;;;;6146219;23;19998;-92
2021/01/07 21:46:16;;;;;;;17.27;9.60;;;0.40;99.90;;;;;;6184007;23;20074;-94
2021/01/07 21:48:58;;;;;;;17.13;9.23;;;0.50;99.90;;;;;;6179944;23;20009;-96
2021/01/07 21:51:41;;;;;;;17.33;9.45;;;0.50;99.90;;;;;;6158042;23;19985;-95
2021/01/07 21:56:57;;;;;;;19.83;9.97;;;0.50;99.90;;;;;;6113034;23;20013;-96
2021/01/07 22:05:11;;;;;;;17.33;9.53;;;0.50;99.90;;;;;;6181938;23;20015;-95
2021/01/07 22:07:38;;;;;;;18.40;10.03;;;0.50;99.90;;;;;;6156123;23;20006;-96
2021/01/07 22:10:05;;;;;;;18.07;10.00;;;0.30;99.90;;;;;;6155777;23;19990;-96
2021/01/07 22:12:32;;;;;;;18.83;9.47;;;0.30;99.90;;;;;;6157114;23;19997;-96
2021/01/07 23:07:37;;;;;;;15.23;8.53;;;0.50;99.90;;;;;;6135731;23;20014;-95
2021/01/07 23:15:39;;;;;;;13.10;7.63;;;0.50;99.90;;;;;;6150620;23;20010;-96
2021/01/07 23:27:33;;;;;;;17.23;8.83;;;0.60;99.90;;;;;;6119898;23;20078;-96
2021/01/07 23:55:56;;;;;;;15.40;7.90;;;0.40;99.90;;;;;;6145134;23;20281;-95
2021/01/07 23:58:22;;;;;;;16.47;8.20;;;0.40;99.90;;;;;;6127112;23;20012;-96
